Date,TemperatureHighF,TemperatureAvgF,TemperatureLowF,DewpointHighF,DewpointAvgF,DewpointLowF,HumidityHigh,HumidityAvg,HumidityLow,PressureMaxIn,PressureMinIn,WindSpeedMaxMPH,WindSpeedAvgMPH,GustSpeedMaxMPH,PrecipitationSumIn
2013-1-1,18.0,2.5,-15.9,14.5,-2.3,-20.2,87,80,62,30.26,30.01,6,2,9,0.00
2013-1-2,18.0,18.0,18.0,14.5,14.5,14.5,86,86,86,30.01,30.01,3,3,4,0.00
2013-1-3,18.0,17.9,13.6,14.5,14.4,10.5,87,86,85,30.08,30.01,9,3,12,0.00
2013-1-4,24.6,17.0,7.2,16.7,11.6,4.2,93,79,69,30.11,29.99,12,3,13,0.00
2013-1-5,23.0,8.9,3.6,15.0,5.5,0.4,92,86,70,30.08,29.77,6,1,8,0.00
2013-1-6,23.4,15.8,8.1,14.8,10.5,3.0,91,80,63,30.21,29.97,7,2,10,0.00
2013-1-7,31.5,19.0,16.0,24.2,15.1,12.0,90,85,74,29.97,29.83,6,0,9,0.03
2013-1-8,36.9,25.0,9.3,27.9,20.5,6.5,95,83,69,29.96,29.68,10,3,13,0.15
2013-1-9,34.2,28.5,19.4,26.2,21.6,16.9,93,75,62,30.33,29.88,18,5,20,0.00
2013-1-10,42.1,33.1,23.9,32.5,25.2,19.9,97,74,48,30.28,29.73,9,3,11,0.25
2013-1-11,34.2,34.1,33.3,33.7,33.6,32.5,98,98,97,29.72,29.57,6,3,6,0.01
2013-1-12,34.2,27.4,2.8,33.7,25.8,-2.2,98,93,75,30.07,29.57,7,4,8,0.00
2013-1-13,9.1,3.0,0.1,2.2,-2.1,-4.3,84,79,70,30.22,30.05,6,3,9,0.00
2013-1-14,9.9,2.8,-1.3,3.3,-1.3,-5.0,87,83,71,30.35,30.21,5,2,6,0.00
2013-1-15,25.7,11.1,4.5,22.4,6.8,0.5,90,83,71,30.24,29.77,10,2,14,0.00
2013-1-16,26.6,22.8,9.1,23.3,15.5,-4.2,89,75,46,30.23,29.64,13,6,17,0.00
2013-1-17,20.5,10.7,4.1,8.2,2.3,-4.6,81,69,57,30.38,30.23,8,2,10,0.00
2013-1-18,41.0,26.3,14.9,30.5,20.5,8.3,95,79,65,30.27,29.71,9,3,10,0.02
2013-1-19,38.7,20.5,-0.4,29.5,14.6,-6.7,96,79,54,30.21,29.68,19,6,25,0.00
2013-1-20,8.1,0.8,-4.7,99.9,-5.8,-12.4,79,72,57,30.39,30.18,11,4,13,0.00
2013-1-21,-3.6,-8.2,-13.7,-12.1,-16.4,-20.7,79,67,57,30.34,30.18,10,6,15,0.00
2013-1-22,2.1,-6.8,-18.6,-4.0,-13.7,-23.4,81,72,58,30.38,30.22,7,2,9,0.00
2013-1-23,17.8,4.5,-8.1,6.7,-4.3,-17.1,82,67,50,30.60,30.13,14,3,18,0.00
2013-1-24,10.4,-4.2,-9.2,2.2,-12.1,-17.3,70,68,65,30.65,30.13,7,3,9,0.00
2013-1-25,18.0,12.0,2.1,10.8,3.7,-4.0,78,69,55,30.25,29.92,13,4,16,0.00
2013-1-26,22.6,9.5,2.1,12.9,1.9,-46.6,75,71,59,30.25,30.03,8,1,9,0.00
2013-1-27,33.6,27.4,21.0,29.4,21.4,12.8,95,79,63,30.10,29.80,6,2,7,0.00
2013-1-28,38.5,31.5,27.7,33.2,29.5,26.7,97,93,82,29.89,29.53,7,2,9,0.17
2013-1-29,37.9,31.9,25.5,31.3,27.8,18.8,97,85,71,29.76,29.53,9,3,13,0.20
2013-1-30,25.3,16.4,5.7,18.8,10.0,-0.1,81,76,70,29.76,29.67,10,4,14,0.00
2013-1-31,5.5,1.1,-9.9,-0.2,-5.0,-16.5,79,75,66,30.25,29.76,10,8,11,0.00
2013-2-1,3.6,-5.8,-15.2,-3.9,-12.4,-19.8,82,73,53,30.42,29.91,7,3,9,0.00
2013-2-2,7.2,2.9,0.3,3.1,-2.5,-4.2,83,78,68,30.13,29.96,3,2,3,0.00
2013-2-3,11.1,4.2,1.6,5.9,-0.5,-2.9,83,80,76,30.05,29.83,8,2,10,0.00
2013-2-4,14.4,5.6,-2.4,9.1,-1.1,-7.8,86,73,57,30.04,29.73,8,2,9,0.00
2013-2-5,30.9,19.8,1.2,21.9,13.5,-2.7,88,77,55,30.07,29.63,8,3,10,0.04
2013-2-6,26.2,14.9,0.0,18.6,10.2,-3.9,88,81,68,30.09,29.93,8,2,12,0.00
2013-2-7,29.1,24.6,22.3,22.2,20.0,18.4,92,82,69,30.25,29.99,8,3,9,0.00
2013-2-8,29.3,20.7,5.7,18.7,13.5,2.4,89,74,57,30.36,30.19,7,2,10,0.01
2013-2-9,32.0,27.7,23.0,27.7,23.3,18.3,92,83,76,30.19,29.83,10,4,13,0.00
2013-2-10,33.1,29.4,26.2,30.8,27.5,23.8,96,93,89,29.95,29.18,11,3,14,0.00
2013-2-11,29.3,24.1,11.7,28.1,18.6,8.7,96,80,64,30.02,29.35,12,5,15,0.00
2013-2-12,35.8,22.7,9.5,23.8,16.3,6.9,91,77,59,30.02,29.79,10,4,12,0.08
2013-2-13,40.8,28.5,18.9,30.6,23.2,15.6,96,81,60,29.79,29.57,7,2,9,0.16
2013-2-14,31.5,27.3,10.2,30.5,24.1,2.3,96,88,55,30.16,29.58,5,0,6,0.11
2013-2-15,21.0,10.2,0.0,4.6,1.2,-4.2,82,68,46,30.29,30.16,8,3,11,0.00
2013-2-16,22.3,2.3,-3.3,7.9,-3.2,-7.6,85,78,54,30.24,30.09,6,1,7,0.00
2013-2-17,33.1,19.7,-2.4,22.5,12.9,-6.5,85,75,62,30.09,29.62,11,4,14,0.00
2013-2-18,33.3,22.3,7.2,28.0,16.1,1.5,84,77,68,29.98,29.51,13,5,16,0.00
2013-2-19,12.6,4.6,-4.2,1.5,-4.1,-9.7,79,67,52,30.35,29.81,14,5,17,0.00
2013-2-20,16.9,2.1,-13.2,3.2,-5.5,-18.1,83,71,53,30.45,30.35,6,1,9,0.00
2013-2-21,24.3,11.9,-4.7,15.2,3.9,-9.1,84,71,50,30.45,30.09,8,3,10,0.05
2013-2-22,36.3,24.3,18.0,24.9,18.6,14.3,94,79,63,30.09,29.85,10,2,13,0.15
2013-2-23,39.9,24.8,16.0,26.7,19.4,13.7,94,80,59,29.93,29.83,6,2,7,0.08
2013-2-24,39.0,22.2,1.0,24.2,15.9,-3.0,92,77,57,30.09,29.93,6,0,7,0.10
2013-2-25,38.3,23.1,10.6,24.7,16.9,7.5,91,79,57,30.11,29.94,7,1,7,0.01
2013-2-26,32.4,22.9,9.3,25.3,17.8,6.0,92,81,72,30.06,29.80,7,2,12,0.00
2013-2-27,29.1,28.5,25.9,22.6,22.1,20.5,81,76,76,30.02,29.89,6,5,6,0.00
2013-2-28,29.0,23.7,21.0,20.7,16.4,14.0,80,73,68,30.23,29.94,5,1,7,0.00
2013-3-1,32.9,24.2,20.8,19.6,15.9,13.5,78,71,55,30.34,30.22,8,2,11,0.00
2013-3-2,37.6,23.0,1.8,13.5,11.7,-4.9,87,63,34,30.34,30.16,6,1,7,0.00
2013-3-3,37.4,25.3,14.5,13.2,10.0,7.1,79,54,33,30.16,29.97,9,3,10,0.00
2013-3-4,25.2,24.0,22.8,21.0,16.1,9.0,92,73,50,30.03,29.95,10,4,14,0.00
2013-3-5,36.7,25.9,19.9,27.8,21.5,16.7,92,84,65,30.29,29.97,5,1,6,0.00
2013-3-6,38.3,21.1,2.1,21.0,14.4,-1.6,90,76,47,30.44,30.27,0,0,0,0.10
2013-3-7,37.0,5.0,0.0,19.6,0.5,-3.7,85,82,50,30.35,30.21,5,0,7,0.00
2013-3-8,48.0,29.5,13.8,29.7,22.4,9.9,93,76,46,30.30,30.07,6,1,7,0.19
2013-3-9,37.8,34.0,32.4,35.5,32.0,26.6,97,92,72,30.07,29.69,6,2,7,0.71
2013-3-10,35.6,32.5,28.0,32.5,27.4,22.0,97,82,71,29.97,29.79,12,4,16,0.01
2013-3-11,33.4,27.4,19.6,23.0,20.4,15.0,83,75,62,29.92,29.75,10,4,14,0.00
2013-3-12,34.5,24.2,17.6,19.5,14.4,9.5,86,67,44,30.19,29.83,11,4,15,0.00
2013-3-13,35.2,21.4,8.1,17.2,12.4,4.9,90,70,39,30.36,30.19,8,3,10,0.00
2013-3-14,44.1,31.4,21.9,29.5,23.7,15.3,91,74,56,30.23,30.00,6,2,7,0.14
2013-3-15,34.2,29.7,21.7,30.5,26.3,18.4,93,87,79,30.01,29.84,10,3,13,0.03
2013-3-16,30.0,19.8,7.2,18.4,11.6,0.7,89,71,51,30.23,29.92,8,3,11,0.07
2013-3-17,30.9,15.1,-3.5,18.1,4.6,-7.6,84,64,44,30.27,29.87,9,3,12,0.00
2013-3-18,26.4,23.4,11.1,19.9,16.9,5.3,77,76,69,29.87,29.59,15,8,21,0.00
2013-3-19,28.2,14.4,5.4,8.5,2.5,-3.6,78,61,38,30.18,29.80,15,7,20,0.00
2013-3-20,26.6,13.1,3.2,5.7,0.5,-4.1,73,58,40,30.20,30.09,12,5,16,0.00
2013-3-21,35.6,13.4,-7.1,11.8,2.8,-11.4,84,65,38,30.12,30.03,6,1,7,0.03
2013-3-22,43.3,20.7,-1.7,16.4,9.2,-5.9,89,64,33,30.09,30.03,6,1,7,0.02
2013-3-23,42.3,27.9,9.9,19.3,15.4,7.1,90,62,37,30.15,30.06,7,2,7,0.00
2013-3-24,36.0,31.7,26.1,23.1,21.8,-50.5,88,67,60,30.09,30.01,8,2,12,0.00
2013-3-25,42.6,35.1,30.9,22.9,22.2,19.3,66,59,42,30.20,30.00,6,2,8,0.00
2013-3-26,45.0,31.7,24.4,25.6,20.7,17.7,76,65,45,30.28,30.20,8,2,9,0.00
2013-3-27,51.6,27.7,21.6,20.6,18.3,15.3,78,70,29,30.32,30.28,6,0,6,0.00
2013-3-28,52.5,32.1,14.4,23.3,19.2,10.8,91,63,31,30.34,30.25,7,1,9,0.00
2013-3-29,54.0,38.4,22.5,36.8,29.5,18.8,89,71,51,30.28,29.97,7,2,9,0.00
2013-3-30,39.6,39.4,39.4,35.3,35.3,35.0,85,85,84,30.05,30.05,3,2,4,0.00
2013-3-31,39.4,39.4,39.4,35.3,35.3,35.3,85,85,85,30.05,30.05,2,2,2,0.00
2013-4-1,39.4,39.4,39.4,35.3,35.3,35.3,85,85,85,30.05,30.05,2,2,2,0.00
2013-4-2,39.4,38.0,19.9,35.3,33.6,12.9,85,84,68,30.34,30.05,2,2,2,0.00
2013-4-3,47.1,32.2,12.9,32.7,20.1,9.0,90,64,38,30.38,30.02,11,4,14,0.00
2013-4-4,50.5,41.7,28.0,33.0,29.4,21.0,78,62,39,30.17,29.97,11,4,14,0.00
2013-4-5,42.8,33.6,20.3,27.4,22.0,14.0,86,64,40,30.25,30.10,8,4,12,0.00
2013-4-6,38.5,38.5,38.5,27.4,27.4,27.4,64,64,64,30.10,30.10,8,8,8,0.00
2013-4-10,36.3,35.6,34.9,24.9,24.0,23.0,66,63,59,30.10,29.77,10,4,12,0.00
2013-4-11,36.9,32.7,28.0,32.0,27.7,22.1,95,83,58,29.93,29.62,16,5,18,0.23
2013-4-12,39.4,31.5,26.8,29.4,26.6,24.6,94,83,63,29.85,29.69,8,2,9,0.28
2013-4-13,38.5,30.7,19.8,27.7,25.0,17.9,97,80,62,29.96,29.82,7,2,8,0.16
2013-4-14,34.5,30.2,19.8,33.9,26.7,18.4,99,87,69,29.95,29.51,16,6,22,0.52
2013-4-15,38.8,34.6,31.6,34.6,28.7,25.4,99,79,70,29.96,29.51,14,6,17,0.09
2013-4-16,54.3,37.8,30.2,31.4,28.1,24.3,83,69,41,30.31,29.95,9,3,12,0.00
2013-4-17,41.7,35.0,27.3,32.2,29.0,24.3,97,79,67,30.32,29.95,8,3,12,0.00
2013-4-18,33.0,31.4,30.7,32.0,30.6,30.0,97,97,94,29.96,29.47,6,0,10,0.00
2013-4-19,30.7,30.7,30.7,30.0,30.0,30.0,97,97,97,29.57,29.57,0,0,0,0.00
2013-4-20,30.7,30.7,30.7,30.0,30.0,30.0,97,97,97,29.57,29.57,0,0,0,0.00
2013-4-21,44.8,33.1,30.7,44.3,32.5,30.0,99,97,97,30.11,29.57,7,1,9,0.08
2013-4-22,39.9,36.5,31.3,37.1,31.5,30.5,98,83,73,30.21,30.11,6,1,8,0.08
2013-4-23,46.9,34.0,24.6,30.8,25.6,20.1,98,74,38,30.16,30.03,8,0,9,0.00
2013-4-24,40.6,32.5,30.9,35.1,24.3,20.1,95,73,64,30.08,29.90,13,1,14,0.05
2013-4-25,54.0,35.4,30.9,51.1,29.4,28.0,94,81,41,30.13,29.97,8,2,9,0.00
2013-4-26,75.7,52.1,43.9,56.5,33.7,30.1,62,52,29,30.12,30.03,8,6,9,0.00
2013-4-28,48.0,48.0,48.0,35.6,35.6,35.6,62,62,62,30.13,29.78,0,0,0,0.00
2013-4-29,64.0,62.1,60.6,56.3,52.7,49.6,76,71,66,29.78,29.50,5,1,6,0.36
2013-4-30,70.3,62.1,54.1,56.5,49.6,31.0,78,66,25,29.96,29.44,11,4,14,0.00
2013-5-1,54.1,41.5,33.3,37.9,33.1,28.5,97,73,54,30.38,29.96,8,2,11,0.15
2013-5-2,42.4,42.4,42.4,27.8,27.8,27.8,56,56,56,30.45,30.36,7,5,7,0.15
2013-5-3,42.4,42.4,42.4,27.8,27.8,27.8,56,56,56,30.45,30.45,5,5,6,0.00
2013-5-5,73.8,60.8,42.4,53.6,49.1,27.8,95,67,50,30.45,30.00,6,1,8,0.00
2013-5-6,77.9,58.6,38.8,53.7,46.9,38.5,99,69,38,30.13,30.01,8,2,9,0.00
2013-5-7,84.4,59.3,44.1,51.6,48.5,43.8,99,72,28,30.07,29.95,8,1,9,0.00
2013-5-8,78.6,62.7,51.1,57.4,52.7,46.8,97,73,42,30.02,29.96,7,1,9,0.06
2013-5-9,56.7,50.2,41.4,55.9,44.2,30.5,97,80,61,30.14,29.97,12,3,13,0.04
2013-5-10,69.6,51.7,33.3,40.5,31.3,26.3,78,50,20,30.15,29.87,8,2,9,0.00
2013-5-11,56.8,45.2,38.7,40.9,31.9,27.2,69,60,38,30.11,29.87,12,5,15,0.00
2013-5-19,82.2,68.3,53.6,69.3,64.3,28.6,99,89,38,30.10,29.58,9,2,10,0.84
2013-5-20,74.1,65.2,58.6,65.1,60.9,58.0,99,87,64,29.62,29.52,9,3,12,1.45
2013-5-21,59.0,51.7,48.7,58.3,51.1,48.4,99,98,95,29.64,29.55,6,3,8,0.81
2013-5-25,64.2,61.7,51.8,50.7,49.6,48.9,96,66,58,30.24,29.64,5,4,8,0.00
2013-5-26,64.0,54.5,52.7,49.8,42.6,41.5,66,64,60,30.14,30.03,5,3,6,0.00
2013-5-31,71.3,57.4,52.7,55.1,54.6,41.6,99,92,55,30.12,29.53,12,4,15,0.00
2013-6-9,68.6,68.6,68.6,53.2,53.2,53.2,58,58,58,29.53,29.53,5,5,5,0.00
2013-6-10,68.6,68.6,68.6,53.2,53.2,53.2,58,58,58,29.53,29.53,5,5,5,0.00
2013-6-11,71.3,68.0,61.5,65.1,56.4,53.2,93,68,58,29.91,29.53,5,4,5,0.00
2013-6-12,77.4,61.5,53.6,63.0,55.5,50.6,99,82,56,29.91,29.79,9,1,10,0.55
2013-6-13,67.5,67.5,67.5,55.3,55.3,55.3,65,65,65,29.86,29.86,0,0,0,0.00
2013-6-14,67.5,67.5,67.5,55.3,55.3,55.3,65,65,65,29.86,29.86,0,0,0,0.00
2013-6-15,67.5,67.5,67.5,55.3,55.3,55.3,65,65,65,29.86,29.86,0,0,0,0.00
2013-6-16,81.9,69.8,56.9,58.1,52.8,46.0,80,57,32,29.92,29.85,16,2,16,0.00
2013-6-17,77.4,64.6,51.8,59.2,53.8,49.0,99,70,49,30.00,29.87,7,2,9,0.00
2013-6-18,58.8,58.8,58.8,49.0,49.0,49.0,70,70,70,30.00,30.00,2,2,2,0.00
2013-6-19,58.8,58.8,58.8,49.0,49.0,49.0,70,70,70,30.00,30.00,2,2,2,0.00
2013-6-20,86.4,73.7,58.8,66.1,61.4,49.0,88,67,51,30.00,29.90,5,2,7,0.00
2013-6-21,82.8,82.8,82.8,64.4,64.4,64.4,54,54,54,29.90,29.90,0,0,0,0.00
2013-6-22,82.8,82.8,82.8,64.4,64.4,64.4,54,54,54,29.90,29.90,0,0,0,0.00
2013-6-23,82.8,82.8,82.8,64.4,64.4,64.4,54,54,54,29.90,29.90,0,0,0,0.00
2013-6-24,82.8,79.1,66.9,68.8,65.2,63.7,98,64,54,29.90,29.81,5,0,7,0.00
2013-6-25,89.6,75.8,62.2,74.2,68.8,61.9,99,81,61,29.84,29.73,9,2,10,0.00
2013-6-26,93.0,74.4,70.3,92.7,70.4,63.5,99,89,56,29.82,29.69,4,0,6,0.00
2013-6-27,71.4,67.5,64.6,66.6,63.0,57.5,99,87,62,29.83,29.80,5,0,6,0.01
2013-6-28,71.4,64.7,63.5,65.1,58.1,56.3,98,80,62,29.82,29.80,5,2,6,0.22
2013-6-29,63.5,63.1,63.1,63.0,62.8,62.4,99,99,97,29.80,29.78,2,0,3,0.00
2013-6-30,63.1,63.1,63.1,62.8,62.8,62.8,99,99,99,29.78,29.78,0,0,0,0.00
2013-7-1,63.1,63.1,63.1,62.8,62.8,62.8,99,99,99,29.78,29.78,0,0,0,0.00
2013-7-2,63.1,63.1,63.1,62.8,62.8,62.8,99,99,99,29.78,29.78,0,0,0,0.00
2013-7-3,63.1,63.1,63.1,62.8,62.8,62.8,99,99,99,29.78,29.78,0,0,0,0.00
2013-7-4,63.1,63.1,63.1,62.8,62.8,62.8,99,99,99,29.78,29.78,0,0,0,0.00
2013-7-5,91.0,79.6,63.1,68.0,62.6,56.2,99,57,43,29.91,29.78,12,3,12,0.00
2013-7-6,90.0,79.5,71.4,72.7,65.0,60.2,69,61,56,29.88,29.81,7,1,8,0.00
2013-7-7,93.9,80.4,67.6,75.4,68.4,63.9,97,68,54,29.91,29.83,9,1,13,0.01
2013-7-8,94.3,72.0,60.4,75.0,66.4,59.8,98,84,54,30.03,29.90,6,2,8,0.01
2013-7-9,87.6,74.6,66.9,75.3,69.1,63.2,99,85,63,29.98,29.73,11,3,16,1.27
2013-7-10,89.2,71.8,57.7,63.3,59.3,54.8,90,67,39,30.06,29.94,7,2,9,0.00
2013-7-11,86.4,72.4,54.0,64.7,58.9,53.2,99,66,42,30.12,29.97,6,1,8,0.00
2013-7-12,92.1,79.1,68.2,67.5,61.0,55.1,65,55,43,30.11,29.89,8,3,13,0.00
2013-7-13,82.4,73.4,66.4,72.0,65.0,57.2,98,76,58,30.07,29.93,7,2,11,2.40
2013-7-14,86.7,75.4,68.9,70.0,64.9,59.8,90,71,54,30.18,30.05,7,1,9,0.00
2013-7-15,93.2,75.4,64.4,87.2,67.2,63.8,98,79,48,30.38,30.16,6,0,9,0.00
2013-7-16,94.5,82.3,72.1,74.7,71.1,66.3,92,71,51,30.21,30.15,7,2,10,0.00
2013-7-17,99.7,79.3,75.9,76.1,70.7,69.3,82,76,47,30.21,30.11,6,0,9,0.00
2013-7-18,96.3,84.3,73.9,75.4,71.1,68.2,83,66,51,30.11,29.75,13,3,18,0.00
2013-7-19,91.6,79.4,67.6,69.3,64.1,-99.9,86,61,42,29.89,29.72,12,-1,13,0.00
2013-7-20,82.4,68.4,60.3,64.2,57.8,-99.9,96,73,46,29.89,29.74,7,-10,1,0.01
2013-7-21,83.8,68.2,55.4,67.5,59.2,41.7,89,74,58,29.89,23.07,6,2,5,0.00
2013-7-22,89.8,70.2,64.4,82.2,62.1,52.8,88,77,44,29.89,29.71,9,1,9,0.00
2013-7-23,83.1,67.2,55.2,57.1,53.6,50.7,90,64,40,30.03,29.87,9,2,9,0.00
2013-7-24,64.9,57.9,53.2,57.2,53.9,51.3,96,87,72,30.05,29.97,2,0,2,0.00
2013-7-25,81.5,70.8,59.2,64.8,60.8,56.7,95,72,55,29.98,29.91,11,2,11,0.01
2013-7-26,57.9,56.4,54.9,48.0,46.4,44.9,70,69,68,30.10,30.09,8,3,8,0.02
2013-7-27,63.1,55.8,50.4,53.4,47.0,44.3,82,73,60,30.11,29.95,12,2,12,0.15
2013-7-28,79.5,66.1,52.2,56.8,52.4,46.3,90,63,44,30.07,29.99,7,2,11,0.00
2013-7-29,81.9,61.7,46.0,60.2,52.5,44.6,96,75,43,30.13,30.07,6,1,7,0.02
2013-7-30,75.4,65.7,59.5,64.8,61.3,58.0,96,86,66,30.11,30.05,3,0,5,0.28
2013-7-31,84.4,68.2,55.2,65.1,58.5,47.4,98,75,37,30.07,29.99,9,1,12,0.00
2013-8-1,87.3,67.3,49.1,60.7,54.6,47.0,96,67,38,30.04,29.87,8,1,10,0.00
2013-8-2,81.5,65.8,52.7,58.0,54.4,49.6,95,69,41,30.05,29.86,6,1,9,0.00
2013-8-3,81.1,63.7,48.2,56.7,50.4,46.7,95,66,37,30.21,30.05,5,1,7,0.00
2013-8-4,80.8,63.2,48.2,56.7,51.9,46.8,96,70,42,30.24,30.01,7,1,8,0.00
2013-8-5,87.8,71.6,59.9,99.9,60.7,53.0,82,67,52,30.01,29.79,5,1,6,0.01
2013-8-6,84.7,66.5,53.4,68.3,59.2,52.0,96,79,57,29.86,29.67,12,2,17,0.32
2013-8-7,84.4,66.5,57.6,59.9,55.4,-19.2,98,72,35,30.02,29.79,7,2,8,0.00
2013-8-8,78.3,68.8,52.0,60.8,57.3,50.9,97,69,53,30.06,29.98,7,2,12,0.00
2013-8-9,77.9,65.6,53.6,59.5,54.6,49.2,97,70,45,30.13,30.00,6,1,8,0.00
2013-8-10,70.9,58.9,50.5,57.5,52.5,48.7,95,81,58,30.19,30.09,3,0,5,0.00
2013-8-11,86.5,68.8,56.3,63.8,59.7,54.0,95,75,46,30.10,30.00,4,1,6,0.00
2013-8-12,85.5,68.0,55.0,60.7,56.5,50.5,97,70,40,30.08,30.01,6,1,9,0.00
2013-8-13,83.1,63.4,50.9,56.8,50.3,45.8,97,67,30,30.21,30.09,5,1,9,0.00
2013-8-14,79.0,56.0,47.1,53.9,49.5,46.0,96,81,42,30.20,30.10,5,0,6,0.00
2013-8-15,85.1,63.8,47.1,61.0,53.7,45.0,96,73,41,30.14,30.07,7,1,9,0.00
2013-8-16,84.6,67.8,55.4,60.9,55.9,49.8,96,69,38,30.19,30.13,7,1,8,0.00
2013-8-17,84.6,70.9,49.6,59.7,55.7,48.2,97,61,41,30.20,30.10,10,2,13,0.00
2013-8-18,83.8,69.5,52.2,60.6,56.0,50.9,96,65,42,30.14,30.00,9,2,13,0.00
2013-8-19,91.4,76.5,66.4,71.4,63.3,56.2,72,64,52,30.02,29.90,7,2,8,0.00
2013-8-20,91.9,76.8,69.6,73.4,66.4,62.4,88,71,55,29.92,29.86,6,1,6,0.00
2013-8-21,96.8,77.8,65.8,77.7,69.1,57.6,96,76,53,30.02,29.83,6,1,7,0.00
2013-8-22,91.4,71.9,57.4,57.7,53.4,49.4,80,56,27,30.14,30.01,8,2,9,0.00
2013-8-23,91.9,71.0,51.1,65.6,57.5,49.1,95,66,39,30.16,30.03,6,1,8,0.00
2013-8-24,91.8,79.5,70.0,73.1,66.5,61.3,75,65,53,30.07,29.92,10,3,13,0.00
2013-8-25,97.5,85.2,77.4,77.5,71.1,66.9,71,63,51,30.01,29.92,8,4,18,0.00
2013-8-26,97.3,85.7,76.5,78.3,73.4,70.2,81,68,53,29.99,29.83,7,2,9,0.00
2013-8-27,95.9,82.4,70.5,79.2,73.1,66.8,92,74,56,29.93,29.80,7,1,9,0.00
2013-8-28,89.6,75.5,64.3,72.7,66.4,-26.2,97,76,2,30.03,29.93,7,1,9,0.00
2013-8-29,97.9,79.9,67.3,76.6,70.8,-17.9,96,76,51,30.01,29.84,8,1,10,0.13
2013-8-30,88.2,74.5,64.0,68.0,64.6,57.7,89,72,51,29.96,29.83,9,2,10,0.00
2013-8-31,90.9,71.9,58.3,69.7,62.7,56.9,96,75,50,29.92,29.72,8,1,12,0.22
2013-9-1,73.6,66.6,57.6,60.6,57.1,49.0,89,72,61,30.00,29.74,7,2,12,0.00
2013-9-2,76.1,58.5,48.2,56.0,50.4,44.7,93,76,49,30.11,29.99,6,1,7,0.00
2013-9-3,84.4,60.3,41.2,60.7,51.5,39.3,95,75,45,30.11,29.99,7,1,9,0.00
2013-9-4,84.7,67.5,52.2,66.3,58.1,50.5,96,74,52,30.17,30.02,7,1,9,0.00
2013-9-5,88.2,70.0,55.0,64.8,57.2,49.0,85,65,42,30.23,30.10,6,1,7,0.00
2013-9-6,93.2,78.9,68.2,69.5,66.1,61.3,91,67,43,30.10,29.87,10,2,13,0.00
2013-9-7,93.6,77.8,64.4,71.8,65.3,56.2,95,67,46,30.04,29.86,10,2,13,0.00
2013-9-8,77.1,65.5,62.1,59.5,55.0,37.9,76,69,61,30.07,29.90,8,3,12,0.00
2013-9-9,96.3,73.0,63.9,76.6,66.4,55.8,94,81,53,29.90,29.64,7,1,7,0.05
2013-9-10,85.6,72.5,66.4,68.7,63.4,56.0,93,75,42,29.97,29.76,10,2,16,0.01
2013-9-11,73.6,66.7,62.2,56.6,55.6,29.7,70,68,51,30.07,29.97,5,0,6,0.00
2013-9-12,75.0,60.6,47.1,55.3,47.9,40.8,95,66,39,30.24,30.07,10,1,14,0.00
2013-9-13,79.9,54.3,37.6,47.9,43.0,36.3,96,70,31,30.29,30.08,7,1,8,0.00
2013-9-14,45.9,44.6,43.3,42.8,41.4,40.0,89,89,88,30.09,30.08,0,0,1,0.00
2013-9-15,59.5,56.6,42.6,56.1,54.2,39.1,96,92,88,30.33,30.02,6,2,8,0.33
2013-9-16,71.4,49.6,33.6,44.2,39.0,32.1,96,71,29,30.41,30.25,5,1,7,0.00
2013-9-17,55.8,50.9,39.0,48.0,44.8,36.2,95,80,74,30.26,30.17,4,0,5,0.00
2013-9-18,75.0,66.4,55.8,69.2,63.7,47.6,97,91,74,30.17,29.70,5,1,7,0.03
2013-9-19,79.5,68.7,60.6,71.5,65.8,57.1,98,91,71,29.80,29.63,14,2,16,0.65
2013-9-20,66.9,57.5,48.2,56.8,51.5,45.7,92,81,61,29.94,29.80,8,3,9,0.00
2013-9-21,73.0,51.9,41.7,49.9,45.8,40.4,97,81,43,30.00,29.92,4,1,6,0.00
2013-9-22,74.5,56.3,39.6,58.8,49.1,38.6,97,79,58,29.98,29.85,7,3,9,0.00
2013-9-23,75.6,62.8,53.4,56.2,51.4,46.4,77,67,48,29.95,29.87,8,3,12,0.00
2013-9-24,82.2,60.7,48.0,57.8,51.4,45.6,95,74,39,29.98,29.92,7,1,10,0.00
2013-9-25,75.0,59.0,44.4,56.6,50.5,43.3,97,76,50,29.99,29.87,7,1,10,0.00
2013-9-26,82.6,67.0,54.0,62.3,55.4,47.4,82,67,50,29.93,29.82,8,3,12,0.00
2013-9-27,84.9,77.3,68.4,65.4,62.2,58.3,71,60,51,29.91,29.80,8,4,10,0.00
2013-9-28,74.1,60.2,43.2,62.3,52.9,39.5,93,77,63,29.94,29.63,10,3,13,0.34
2013-9-29,77.7,58.1,39.2,51.5,45.0,37.8,96,67,34,29.97,29.78,7,2,8,0.00
2013-9-30,67.6,66.9,66.4,53.7,52.9,52.1,61,61,60,29.63,29.62,5,2,6,0.00
2013-10-1,76.8,64.1,42.3,53.0,44.7,35.1,82,53,24,30.00,29.58,9,2,14,0.00
2013-10-2,75.2,54.4,36.3,52.9,42.5,35.0,96,71,26,30.05,29.86,9,2,12,0.42
2013-10-3,55.6,54.6,53.8,54.6,53.5,52.1,97,96,94,29.96,29.87,7,1,10,0.00
2013-10-4,58.3,55.5,53.2,55.0,53.0,51.5,97,91,85,30.00,29.87,12,5,15,0.22
2013-10-5,57.9,53.6,43.3,57.6,52.1,42.5,99,95,86,29.88,29.73,10,2,14,0.25
2013-10-6,52.3,46.5,41.7,50.2,45.1,41.2,99,95,89,29.84,29.72,6,1,7,0.08
2013-10-7,71.1,50.1,36.9,50.0,42.1,36.6,99,79,38,29.98,29.83,4,1,6,0.01
2013-10-8,77.4,59.4,41.7,51.1,46.0,40.3,96,65,36,29.96,29.80,9,3,12,0.00
2013-10-9,76.5,63.4,51.1,55.7,49.8,45.5,84,62,44,30.04,29.91,7,2,8,0.00
2013-10-10,78.3,61.4,47.8,58.2,49.2,43.2,85,66,43,30.04,29.88,5,2,9,0.00
2013-10-11,73.6,65.2,55.6,59.3,53.5,47.8,86,67,54,29.88,29.62,10,4,15,0.32
2013-10-12,57.9,49.1,40.5,53.5,42.1,38.5,95,77,64,30.17,29.69,13,4,16,0.03
2013-10-13,64.4,47.9,35.2,41.5,36.6,32.2,94,69,36,30.43,30.17,4,1,6,0.00
2013-10-14,53.1,44.5,33.8,45.7,38.5,32.3,96,81,61,30.40,29.98,9,2,11,0.42
2013-10-15,51.8,48.1,44.2,51.0,47.1,43.1,98,96,95,29.98,29.68,13,3,19,1.56
2013-10-16,58.8,44.9,31.3,43.1,39.0,28.7,96,82,49,29.95,29.84,7,2,10,0.01
2013-10-17,55.2,43.5,31.3,45.7,39.5,28.7,96,87,63,29.88,29.78,5,1,7,0.91
2013-10-18,42.6,41.5,41.0,41.3,36.8,33.0,96,84,73,29.87,29.84,6,2,13,1.20
2013-10-19,49.6,38.7,28.4,38.7,34.2,26.9,96,85,55,29.84,29.69,6,1,8,0.02
2013-10-20,39.0,33.7,27.1,37.4,32.3,25.9,96,95,88,29.87,29.63,6,1,8,0.23
2013-10-21,41.4,33.2,25.0,32.3,24.6,20.8,87,71,53,30.12,29.87,9,2,16,0.00
2013-10-22,42.3,31.9,22.3,32.3,27.9,20.2,95,86,66,30.14,29.95,4,0,7,0.00
2013-10-23,38.5,33.1,30.6,31.6,26.4,21.5,95,77,60,30.10,29.99,7,1,9,0.06
2013-10-24,43.7,36.1,31.1,31.6,27.5,21.9,80,71,57,30.30,30.10,6,1,8,0.00
2013-10-25,35.8,34.8,31.6,29.9,29.2,26.7,83,80,79,30.30,30.28,4,0,5,0.00
2013-10-26,41.2,38.4,32.7,30.3,29.0,26.0,76,69,65,30.10,30.02,4,0,4,0.00
2013-10-27,58.1,40.5,28.6,36.5,29.6,-4.8,86,67,43,30.15,29.81,10,2,13,0.00
2013-10-28,43.3,34.1,27.7,28.2,22.1,18.1,78,63,38,30.44,30.15,10,3,14,0.00
2013-10-29,37.2,33.8,27.0,33.6,27.2,21.3,91,77,70,30.41,30.09,6,2,12,0.05
2013-10-30,47.3,42.4,36.0,46.2,41.4,33.6,98,96,91,30.09,29.67,6,1,7,0.09
2013-10-31,46.6,41.7,38.8,46.1,40.7,37.5,98,96,91,29.67,29.40,5,2,7,0.06
2013-11-1,51.8,41.2,34.9,38.7,35.6,29.6,97,81,59,29.85,29.42,7,2,9,0.00
2013-11-2,50.7,36.6,27.3,33.8,29.1,24.5,94,76,50,30.08,29.85,6,1,8,0.00
2013-11-3,55.2,42.7,27.3,37.0,32.4,25.5,95,69,47,30.10,29.87,11,4,15,0.00
2013-11-4,47.8,42.0,28.4,44.0,35.3,27.2,96,78,60,30.13,29.81,9,3,12,0.15
2013-11-5,43.7,31.9,22.6,34.4,28.1,20.8,96,87,62,30.23,30.03,4,0,6,0.06
2013-11-6,42.1,31.2,24.1,31.9,26.9,20.8,96,85,64,30.14,30.03,8,1,9,0.39
2013-11-7,38.7,26.9,16.3,30.2,23.9,14.4,96,89,69,30.22,30.14,9,1,11,0.14
2013-11-8,42.8,32.2,17.6,37.9,26.6,15.4,95,81,61,30.18,29.58,10,2,12,0.07
2013-11-9,43.3,39.5,36.3,37.9,33.0,27.7,92,78,64,30.18,29.60,15,6,23,0.01
2013-11-10,42.6,36.0,27.9,31.7,28.8,22.5,81,75,65,30.31,30.09,11,3,13,0.00
2013-11-11,35.4,22.6,12.4,29.5,12.6,6.0,79,66,49,30.69,30.11,10,4,14,0.00
2013-11-12,29.5,18.5,7.9,13.3,8.6,3.0,80,66,43,30.74,30.41,9,3,10,0.00
2013-11-13,52.0,35.3,20.1,34.5,24.6,12.9,78,66,49,30.41,29.85,13,4,15,0.00
2013-11-14,53.4,38.9,28.4,39.7,32.0,27.0,96,77,60,29.85,29.74,8,1,9,0.00
2013-11-15,55.8,39.5,22.6,40.0,32.6,21.1,96,78,52,29.83,29.62,8,2,11,0.00
2013-11-16,45.0,43.1,38.8,44.3,40.2,32.8,98,90,71,29.62,29.25,7,2,9,0.11
2013-11-17,44.2,38.6,30.7,41.6,35.1,24.3,98,87,76,29.81,29.29,18,5,21,0.01
2013-11-18,32.9,27.0,16.5,24.7,20.5,13.5,90,77,65,30.24,29.81,16,4,20,0.00
2013-11-19,46.4,33.1,15.6,30.9,24.4,13.4,92,72,50,30.25,29.88,11,4,14,0.01
2013-11-20,46.4,42.0,36.7,31.9,29.9,26.6,82,63,50,30.03,29.86,12,4,15,0.00
2013-11-21,36.7,29.9,22.3,35.3,25.0,14.9,96,82,71,30.50,30.02,10,3,14,0.00
2013-11-22,34.7,20.4,9.7,15.2,8.6,1.6,84,63,28,30.60,30.41,13,4,17,0.00
2013-11-23,18.9,7.4,0.3,4.1,-1.4,-5.4,80,68,38,30.80,30.62,7,2,9,0.00
2013-11-24,31.3,18.4,-0.8,16.8,7.9,-6.0,81,64,49,30.67,29.93,12,5,18,0.00
2013-11-25,36.0,29.7,28.2,25.2,18.5,16.8,67,63,62,30.07,29.90,13,11,18,0.00
2013-11-26,28.2,18.5,6.6,18.8,6.9,1.5,79,61,49,30.36,30.06,11,4,16,0.00
2013-11-27,22.8,14.2,0.1,10.5,5.0,-4.3,84,68,54,30.37,30.05,6,2,9,0.00
2013-11-28,26.4,18.8,3.9,14.8,9.6,-0.5,83,67,55,30.48,30.05,7,2,9,0.00
2013-11-29,32.0,20.0,1.8,20.2,11.9,-2.7,82,71,55,30.49,30.11,9,2,12,0.00
2013-11-30,41.9,28.9,17.1,27.9,21.6,14.2,88,75,56,30.16,30.01,5,1,6,0.00
2013-12-1,35.2,24.2,11.7,25.7,19.5,9.8,94,83,68,30.17,29.90,4,0,5,0.00
2013-12-2,39.2,31.7,24.8,32.8,28.5,21.5,97,88,74,29.91,29.58,8,2,9,0.12
2013-12-3,33.6,33.0,30.0,33.1,32.3,29.0,98,97,95,29.79,29.58,8,3,9,0.16
2013-12-4,30.0,26.0,11.7,29.0,24.3,3.2,96,93,86,29.78,29.47,12,2,14,0.08
2013-12-5,11.7,3.9,-4.9,8.3,-1.3,-9.2,86,79,67,30.29,29.66,13,7,18,0.00
2013-12-6,4.8,-5.2,-14.1,-3.8,-10.4,-18.2,83,78,66,30.60,30.30,8,3,12,0.00
2013-12-7,1.4,-10.4,-18.6,-9.0,-15.7,-22.7,84,77,62,30.67,30.53,10,2,12,0.00
2013-12-8,12.2,2.8,-14.3,6.3,-1.4,-18.2,85,82,76,30.52,30.01,6,2,10,0.00
2013-12-9,5.0,-1.9,-8.5,1.5,-7.0,-15.9,86,79,44,30.07,29.84,12,4,18,0.00
2013-12-10,9.0,2.1,-2.7,-0.2,-3.0,-6.6,85,79,64,30.26,29.75,10,3,13,0.00
2013-12-11,2.5,-5.6,-14.8,-6.2,-11.8,-18.9,83,74,58,30.52,30.26,9,3,12,0.00
2013-12-12,18.7,8.2,-5.3,10.6,2.5,-8.9,84,77,62,30.27,30.11,7,1,8,0.00
2013-12-13,14.9,11.0,7.3,10.4,5.7,3.5,84,79,72,30.28,30.11,8,4,12,0.00
2013-12-14,15.6,7.7,-3.3,7.6,2.9,-7.9,84,80,70,30.27,30.06,8,3,10,0.00
2013-12-15,5.9,-1.5,-5.3,-7.4,-9.5,-13.2,80,69,49,30.28,30.08,9,2,9,0.00
2013-12-16,21.4,4.1,-2.2,18.7,-1.8,-10.8,90,76,65,30.10,29.85,4,1,6,0.00
2013-12-17,31.3,20.5,-0.2,27.3,14.3,-4.4,90,77,60,30.08,29.82,11,5,18,0.00
2013-12-18,34.7,20.2,0.3,24.5,14.7,-3.9,95,80,63,30.05,29.62,8,2,10,0.00
2013-12-19,22.1,15.6,12.6,20.0,10.5,6.9,93,80,67,30.08,29.79,8,3,12,0.00
2013-12-20,23.2,13.9,7.7,13.2,8.9,3.9,84,80,64,30.03,29.84,8,1,11,0.00
2013-12-21,24.4,17.0,11.1,15.7,11.8,7.5,85,80,68,29.99,29.84,5,1,8,0.00
2013-12-22,19.9,13.5,5.7,13.2,8.9,1.5,84,82,73,30.20,29.94,7,3,8,0.00
2013-12-23,5.5,-2.5,-15.2,1.5,-7.8,-19.1,83,78,70,30.48,30.20,7,3,9,0.00
2013-12-24,8.8,-3.2,-20.6,4.0,-9.1,-24.8,84,76,54,30.44,30.10,6,2,9,0.00
2013-12-25,27.1,14.4,8.1,20.4,9.6,-15.9,85,81,69,30.11,30.02,8,2,10,0.00
2013-12-26,29.3,18.3,8.6,19.8,13.3,4.8,87,81,66,30.14,30.05,3,0,4,0.00
2013-12-27,40.1,25.6,6.4,31.8,21.7,2.9,96,85,69,30.14,29.85,11,2,14,0.26
2013-12-28,45.5,30.3,14.4,33.2,26.3,9.9,96,86,62,30.01,29.65,11,2,16,0.15
2013-12-29,14.4,-4.0,-19.8,10.0,-11.7,-25.4,83,69,49,30.31,30.01,12,3,17,0.00
2013-12-30,5.2,-8.3,-21.1,-4.2,-13.7,-26.2,81,77,64,30.26,30.16,5,1,6,0.00
2013-12-31,0.1,-11.4,-20.4,-9.8,-17.0,-25.1,82,76,61,30.39,30.16,4,1,5,0.00
2014-1-1,1.4,-4.9,-13.0,-8.6,-12.3,-17.7,79,70,62,30.46,30.37,5,1,7,0.00
2014-1-2,4.3,-9.1,-20.0,-10.4,-17.4,-25.2,80,67,42,30.48,30.32,5,0,6,0.00